Time;durP1;ratioP1;P1;durP2;ratioP2;P2;SDS_P1;SDS_P2;PMS_P1;PMS_P2;Temp;Humidity;BMP_temperature;BMP_pressure;BME280_temperature;BME280_humidity;BME280_pressure;Samples;Min_cycle;Max_cycle;Signal;HPM_P1;HPM_P2
2021/07/16 00:03:25;;;;;;;13.87;7.37;;;21.20;87.50;;;;;;10536085;28;20183;-23
2021/07/16 00:08:47;;;;;;;10.73;6.80;;;21.20;87.50;;;;;;10498120;28;20208;-23
2021/07/16 00:14:10;;;;;;;11.20;6.77;;;21.20;87.30;;;;;;10476004;28;20197;-23
2021/07/16 00:19:32;;;;;;;12.57;7.00;;;21.20;87.40;;;;;;10461772;28;20212;-23
2021/07/16 00:24:54;;;;;;;11.87;6.77;;;21.20;87.50;;;;;;10510523;28;20196;-23
2021/07/16 00:30:19;;;;;;;14.60;8.27;;;21.20;87.00;;;;;;10498005;28;20229;-23
2021/07/16 00:35:41;;;;;;;14.27;7.70;;;21.20;87.00;;;;;;10497671;28;20201;-23
2021/07/16 00:41:04;;;;;;;11.67;6.90;;;21.20;87.30;;;;;;10509008;28;20224;-22
2021/07/16 00:46:27;;;;;;;11.57;6.60;;;21.20;87.30;;;;;;10497231;28;20690;-22
2021/07/16 00:51:50;;;;;;;11.40;6.93;;;21.20;87.00;;;;;;10497029;28;20216;-23
2021/07/16 00:57:12;;;;;;;11.70;6.47;;;21.20;86.70;;;;;;10496144;28;20545;-24
2021/07/16 01:02:36;;;;;;;14.73;7.43;;;21.20;86.70;;;;;;10496229;28;20225;-23
2021/07/16 01:07:59;;;;;;;14.30;7.43;;;21.20;86.70;;;;;;10494649;28;20223;-24
2021/07/16 01:13:21;;;;;;;14.50;7.83;;;21.20;86.60;;;;;;10488325;28;20213;-23
2021/07/16 01:18:45;;;;;;;14.03;7.23;;;21.20;86.60;;;;;;10504617;28;20703;-23
2021/07/16 01:24:09;;;;;;;18.33;7.50;;;21.20;86.50;;;;;;10499918;28;20200;-23
2021/07/16 01:29:31;;;;;;;16.93;6.87;;;21.10;86.10;;;;;;10495071;28;20220;-22
2021/07/16 01:34:54;;;;;;;15.47;7.53;;;21.20;86.30;;;;;;10495550;28;20196;-22
2021/07/16 01:40:19;;;;;;;15.07;6.10;;;21.20;86.40;;;;;;10494802;28;20557;-23
2021/07/16 01:45:43;;;;;;;16.87;7.03;;;21.10;86.20;;;;;;10494244;28;20203;-22
2021/07/16 01:51:05;;;;;;;21.37;7.30;;;21.10;85.60;;;;;;10494637;28;20595;-24
2021/07/16 01:56:28;;;;;;;12.47;6.57;;;21.00;85.90;;;;;;10494241;28;20691;-22
2021/07/16 02:01:50;;;;;;;16.43;6.63;;;21.10;86.20;;;;;;10525751;22;20637;-32
2021/07/16 02:07:12;;;;;;;17.20;7.60;;;21.10;86.10;;;;;;10461467;28;20580;-31
2021/07/16 02:12:35;;;;;;;15.53;6.57;;;21.10;85.90;;;;;;10449608;28;20217;-35
2021/07/16 02:17:58;;;;;;;10.47;6.17;;;21.10;85.10;;;;;;10443268;28;20204;-33
2021/07/16 02:23:23;;;;;;;16.67;6.83;;;21.10;85.80;;;;;;10443047;28;20605;-32
2021/07/16 02:28:47;;;;;;;16.63;7.20;;;21.10;85.10;;;;;;10452603;28;20679;-34
2021/07/16 02:34:09;;;;;;;14.53;6.57;;;21.10;85.20;;;;;;10452379;28;20209;-32
2021/07/16 02:39:31;;;;;;;13.53;6.43;;;21.10;85.40;;;;;;10451693;28;20205;-32
2021/07/16 02:44:54;;;;;;;25.70;7.03;;;21.10;85.30;;;;;;10441777;28;20225;-32
2021/07/16 02:50:20;;;;;;;14.63;6.57;;;21.10;84.80;;;;;;10433021;28;20217;-33
2021/07/16 02:55:43;;;;;;;13.50;7.07;;;21.10;84.80;;;;;;10443290;28;20216;-34
2021/07/16 03:01:06;;;;;;;16.20;6.70;;;21.00;84.80;;;;;;10451703;28;20688;-32
2021/07/16 03:06:28;;;;;;;17.03;6.93;;;21.10;84.60;;;;;;10452201;28;20197;-33
2021/07/16 03:11:50;;;;;;;15.23;7.33;;;21.10;84.60;;;;;;10451617;28;20252;-34
2021/07/16 03:17:14;;;;;;;13.00;6.60;;;21.00;84.50;;;;;;10451674;28;20197;-32
2021/07/16 03:22:36;;;;;;;15.90;7.57;;;21.10;84.70;;;;;;10454599;28;20217;-35
2021/07/16 03:27:58;;;;;;;18.87;7.33;;;21.00;84.30;;;;;;10459236;28;20193;-34
2021/07/16 03:33:21;;;;;;;15.77;6.67;;;21.00;84.00;;;;;;10458965;28;20229;-35
2021/07/16 03:38:46;;;;;;;16.20;7.43;;;21.00;84.10;;;;;;10459002;28;20189;-31
2021/07/16 03:44:08;;;;;;;14.53;6.37;;;20.90;84.40;;;;;;10458649;28;20220;-31
2021/07/16 03:49:32;;;;;;;17.23;6.43;;;20.90;83.80;;;;;;10458278;28;20220;-31
2021/07/16 03:54:54;;;;;;;15.10;6.17;;;20.90;83.90;;;;;;10450413;28;20213;-31
2021/07/16 04:00:19;;;;;;;17.40;6.47;;;20.80;83.90;;;;;;10435438;28;20197;-32
2021/07/16 04:05:42;;;;;;;18.57;7.13;;;20.80;84.50;;;;;;10415776;28;20608;-31
2021/07/16 04:11:05;;;;;;;14.37;5.93;;;20.80;84.10;;;;;;10448389;28;20220;-33
2021/07/16 04:16:27;;;;;;;13.37;6.30;;;20.90;84.20;;;;;;10457618;28;20207;-32
2021/07/16 04:21:50;;;;;;;14.03;6.63;;;20.90;84.30;;;;;;10440875;28;20218;-34
2021/07/16 04:27:14;;;;;;;17.63;6.43;;;20.90;83.50;;;;;;10415909;28;20193;-32
2021/07/16 04:32:37;;;;;;;20.47;6.10;;;20.90;83.40;;;;;;10430861;28;20221;-32
2021/07/16 04:38:00;;;;;;;17.17;5.73;;;20.80;83.60;;;;;;10440841;28;20585;-32
2021/07/16 04:43:23;;;;;;;19.37;6.13;;;20.90;83.80;;;;;;10421802;28;20214;-34
2021/07/16 04:48:45;;;;;;;16.53;5.97;;;20.90;83.10;;;;;;10447500;28;20197;-33
2021/07/16 04:54:09;;;;;;;17.03;5.67;;;20.90;83.10;;;;;;10453270;28;20574;-34
2021/07/16 04:59:31;;;;;;;22.17;6.17;;;20.80;82.80;;;;;;10455593;28;20200;-31
2021/07/16 05:04:53;;;;;;;18.83;5.87;;;20.70;83.60;;;;;;10455473;28;20220;-32
2021/07/16 05:10:16;;;;;;;15.80;5.60;;;20.70;83.40;;;;;;10423827;28;20221;-31
2021/07/16 05:15:38;;;;;;;22.77;6.13;;;20.70;83.50;;;;;;10414456;28;20217;-35
2021/07/16 05:21:01;;;;;;;16.60;6.00;;;20.80;83.50;;;;;;10424385;28;20208;-34
2021/07/16 05:26:24;;;;;;;19.00;6.10;;;20.70;83.30;;;;;;10454857;28;20214;-35
2021/07/16 05:31:46;;;;;;;18.90;6.07;;;20.70;83.50;;;;;;10454246;28;20221;-30
2021/07/16 05:37:09;;;;;;;16.30;5.93;;;20.70;83.60;;;;;;10446399;28;20198;-31
2021/07/16 05:42:32;;;;;;;21.80;6.63;;;20.70;84.10;;;;;;10420259;28;20217;-30
2021/07/16 05:47:56;;;;;;;20.17;6.27;;;20.70;83.70;;;;;;10431911;28;20197;-32
2021/07/16 05:53:18;;;;;;;19.27;6.73;;;20.80;83.40;;;;;;10453177;28;20213;-34
2021/07/16 05:58:42;;;;;;;18.60;6.40;;;20.70;83.30;;;;;;10452897;28;20193;-31
2021/07/16 06:04:09;;;;;;;23.33;6.87;;;20.80;83.70;;;;;;10443862;28;20213;-32
2021/07/16 06:09:31;;;;;;;20.60;6.90;;;20.80;83.80;;;;;;10450379;28;20198;-33
2021/07/16 06:14:56;;;;;;;17.60;6.97;;;20.80;83.70;;;;;;10443763;28;20224;-36
2021/07/16 06:20:18;;;;;;;22.00;7.17;;;20.90;83.70;;;;;;10448426;28;20200;-32
2021/07/16 06:25:40;;;;;;;16.53;6.70;;;20.90;83.70;;;;;;10426261;28;20217;-34
2021/07/16 06:31:03;;;;;;;18.87;7.23;;;20.90;83.90;;;;;;10419044;28;20591;-29
2021/07/16 06:36:26;;;;;;;18.73;6.70;;;20.90;83.90;;;;;;10432900;28;20190;-33
2021/07/16 06:41:48;;;;;;;20.57;7.10;;;20.90;83.60;;;;;;10437273;28;20685;-31
2021/07/16 06:47:11;;;;;;;18.80;6.60;;;20.90;83.40;;;;;;10415992;28;20189;-35
2021/07/16 06:52:34;;;;;;;22.97;7.63;;;20.90;83.90;;;;;;10443549;28;20221;-33
2021/07/16 06:57:56;;;;;;;16.83;6.40;;;21.00;84.00;;;;;;10457574;28;20193;-31
2021/07/16 07:03:20;;;;;;;23.07;7.03;;;20.90;84.00;;;;;;10459994;28;20217;-30
2021/07/16 07:08:42;;;;;;;22.87;7.00;;;21.00;83.90;;;;;;10453425;28;20193;-31
2021/07/16 07:14:05;;;;;;;28.97;7.37;;;21.00;83.80;;;;;;10419031;28;20217;-31
2021/07/16 07:19:28;;;;;;;23.97;7.03;;;20.90;81.90;;;;;;10422051;28;20201;-30
2021/07/16 07:24:50;;;;;;;19.10;6.53;;;20.90;82.40;;;;;;10419671;28;20221;-32
2021/07/16 07:30:13;;;;;;;27.77;7.73;;;20.90;82.10;;;;;;10439021;28;20627;-32
2021/07/16 07:35:37;;;;;;;26.50;8.90;;;20.90;82.40;;;;;;10419073;28;20805;-30
2021/07/16 07:40:59;;;;;;;20.30;7.10;;;21.10;81.60;;;;;;10448719;28;20673;-35
2021/07/16 07:46:21;;;;;;;20.83;7.20;;;21.00;82.50;;;;;;10422146;28;20209;-33
2021/07/16 07:51:45;;;;;;;20.83;6.63;;;21.00;83.20;;;;;;10415811;28;20225;-36
2021/07/16 07:57:07;;;;;;;18.90;6.60;;;21.10;83.50;;;;;;10438114;28;20217;-31
2021/07/16 08:02:29;;;;;;;19.13;7.10;;;21.10;83.70;;;;;;10456087;22;20236;-22
2021/07/16 08:07:53;;;;;;;19.47;6.87;;;21.10;84.00;;;;;;10478588;28;20201;-23
2021/07/16 08:13:15;;;;;;;21.77;6.37;;;21.10;83.80;;;;;;10491495;28;20227;-23
2021/07/16 08:18:37;;;;;;;14.23;6.07;;;21.10;84.40;;;;;;10464861;28;20197;-23
2021/07/16 08:24:01;;;;;;;16.23;6.23;;;21.10;83.90;;;;;;10435877;28;20689;-23
2021/07/16 08:29:24;;;;;;;16.67;5.90;;;21.10;84.10;;;;;;10415395;28;20201;-24
2021/07/16 08:34:46;;;;;;;19.17;7.00;;;21.10;84.20;;;;;;10439454;28;20300;-24
2021/07/16 08:40:10;;;;;;;16.17;5.60;;;21.10;84.10;;;;;;10463412;28;20215;-23
2021/07/16 08:45:32;;;;;;;17.40;6.13;;;21.10;84.40;;;;;;10412961;28;20720;-25
2021/07/16 08:50:54;;;;;;;12.93;5.63;;;21.10;84.60;;;;;;10453238;28;20244;-22
2021/07/16 08:56:18;;;;;;;11.87;5.53;;;21.10;84.70;;;;;;10447910;28;20213;-22
2021/07/16 09:01:42;;;;;;;15.90;5.80;;;21.10;84.90;;;;;;10440706;28;20681;-23
2021/07/16 09:07:05;;;;;;;11.77;4.63;;;21.10;85.00;;;;;;10415928;28;20205;-23
2021/07/16 09:12:34;;;;;;;16.53;6.17;;;21.10;85.00;;;;;;10457457;28;20213;-23
2021/07/16 09:18:14;;;;;;;18.37;6.70;;;21.20;84.80;;;;;;10439113;28;20229;-23
2021/07/16 09:23:38;;;;;;;16.07;6.17;;;21.20;84.80;;;;;;10480076;28;20214;-22
2021/07/16 09:29:04;;;;;;;13.17;5.93;;;21.10;85.00;;;;;;10412656;28;20202;-22
2021/07/16 09:34:27;;;;;;;21.20;5.90;;;21.20;84.90;;;;;;10426335;28;20603;-23
2021/07/16 09:39:49;;;;;;;16.83;6.23;;;21.20;84.70;;;;;;10453826;28;20668;-24
2021/07/16 09:45:14;;;;;;;16.17;6.40;;;21.20;84.80;;;;;;10411721;28;20202;-23
2021/07/16 09:50:37;;;;;;;14.43;5.80;;;21.20;84.80;;;;;;10412056;28;20331;-24
2021/07/16 09:56:14;;;;;;;19.33;6.97;;;21.10;84.70;;;;;;10453478;28;20717;-22
2021/07/16 10:01:39;;;;;;;18.90;6.63;;;21.10;84.70;;;;;;10452318;28;20550;-22
2021/07/16 10:07:01;;;;;;;20.13;6.70;;;21.10;84.80;;;;;;10463503;28;20197;-23
2021/07/16 10:12:24;;;;;;;19.97;6.83;;;21.20;84.80;;;;;;10409961;28;20225;-24
2021/07/16 10:17:49;;;;;;;18.63;7.03;;;21.20;84.70;;;;;;10424065;28;20197;-23
2021/07/16 10:23:11;;;;;;;16.83;6.60;;;21.20;85.00;;;;;;10480988;28;20215;-25
2021/07/16 10:28:40;;;;;;;16.27;6.70;;;21.20;85.00;;;;;;10473131;28;20213;-22
2021/07/16 10:34:05;;;;;;;16.93;6.50;;;21.20;84.90;;;;;;10409401;28;20210;-23
2021/07/16 10:39:44;;;;;;;17.20;6.57;;;21.20;84.90;;;;;;10426099;28;20205;-25
2021/07/16 10:45:09;;;;;;;19.20;6.73;;;21.20;85.10;;;;;;10409628;28;20210;-24
2021/07/16 10:50:37;;;;;;;20.00;6.97;;;21.20;85.10;;;;;;10423186;28;20654;-22
2021/07/16 10:56:08;;;;;;;18.10;7.57;;;21.20;85.10;;;;;;10432072;28;20727;-23
2021/07/16 11:01:34;;;;;;;13.00;6.00;;;21.20;85.10;;;;;;10428471;28;20189;-25
2021/07/16 11:06:59;;;;;;;16.33;6.50;;;21.20;85.10;;;;;;10446081;28;20193;-22
2021/07/16 11:12:24;;;;;;;16.33;6.23;;;21.20;85.20;;;;;;10450441;28;20224;-24
2021/07/16 11:17:56;;;;;;;15.97;6.17;;;21.20;85.20;;;;;;10427984;28;20197;-23
2021/07/16 11:23:20;;;;;;;17.17;6.90;;;21.20;85.30;;;;;;10454019;28;20209;-23
2021/07/16 11:28:42;;;;;;;16.37;6.37;;;21.20;85.30;;;;;;10411853;28;20205;-23
2021/07/16 11:34:05;;;;;;;16.17;6.43;;;21.20;85.40;;;;;;10442192;28;20255;-24
2021/07/16 11:39:31;;;;;;;19.40;7.00;;;21.20;85.60;;;;;;10448016;28;20205;-23
2021/07/16 11:44:53;;;;;;;15.97;6.50;;;21.20;85.50;;;;;;10487438;28;20212;-25
2021/07/16 11:50:15;;;;;;;18.03;7.10;;;21.20;86.20;;;;;;10450520;28;20201;-24
2021/07/16 11:55:40;;;;;;;17.13;6.80;;;21.20;85.60;;;;;;10456470;28;20342;-23
2021/07/16 12:01:11;;;;;;;12.77;6.30;;;21.20;85.70;;;;;;10492541;28;20719;-23
2021/07/16 12:06:33;;;;;;;11.60;6.30;;;21.20;85.70;;;;;;10492636;28;20766;-23
2021/07/16 12:12:06;;;;;;;14.87;6.23;;;21.20;85.90;;;;;;10474084;28;20584;-23
2021/07/16 12:17:29;;;;;;;13.47;6.33;;;21.20;85.90;;;;;;10445466;28;20272;-24
2021/07/16 12:22:52;;;;;;;13.80;6.20;;;21.20;86.00;;;;;;10452494;28;20221;-25
2021/07/16 12:28:18;;;;;;;24.00;6.97;;;21.20;85.80;;;;;;10455947;28;20189;-24
2021/07/16 12:33:41;;;;;;;15.50;5.70;;;21.20;86.00;;;;;;10455088;28;20711;-24
2021/07/16 12:39:20;;;;;;;12.20;5.77;;;21.20;85.80;;;;;;10457094;28;20674;-24
2021/07/16 12:45:02;;;;;;;17.23;7.00;;;21.30;85.90;;;;;;10413899;28;20213;-23
2021/07/16 12:50:26;;;;;;;13.37;5.87;;;21.20;85.90;;;;;;10433999;28;20580;-25
2021/07/16 12:55:49;;;;;;;16.27;6.80;;;21.30;86.10;;;;;;10412328;28;20245;-24
2021/07/16 13:01:12;;;;;;;14.90;6.50;;;21.30;86.00;;;;;;10409086;28;20206;-23
2021/07/16 13:06:34;;;;;;;17.80;6.27;;;21.30;86.20;;;;;;10414926;28;20225;-23
2021/07/16 13:11:59;;;;;;;24.53;7.33;;;21.20;86.10;;;;;;10430976;28;20205;-24
2021/07/16 13:17:26;;;;;;;16.20;6.77;;;21.30;86.30;;;;;;10432963;28;20668;-23
2021/07/16 13:22:48;;;;;;;25.63;7.03;;;21.30;86.30;;;;;;10449259;28;20217;-24
2021/07/16 13:28:10;;;;;;;20.93;7.20;;;21.30;86.30;;;;;;10442007;28;20193;-23
2021/07/16 13:33:34;;;;;;;11.57;6.63;;;21.30;86.40;;;;;;10451734;28;20237;-23
2021/07/16 13:38:56;;;;;;;21.63;7.43;;;21.30;86.40;;;;;;10447150;28;20201;-24
2021/07/16 13:44:18;;;;;;;18.47;7.23;;;21.30;86.40;;;;;;10411977;28;20213;-24
2021/07/16 13:49:42;;;;;;;17.13;7.13;;;21.30;86.40;;;;;;10412655;28;20202;-25
2021/07/16 13:55:05;;;;;;;21.67;7.90;;;21.30;86.50;;;;;;10413103;28;20220;-24
2021/07/16 14:00:27;;;;;;;16.87;7.00;;;21.30;86.60;;;;;;10453453;28;20695;-24
2021/07/16 14:05:51;;;;;;;14.20;7.03;;;21.30;86.60;;;;;;10509478;22;20239;-33
2021/07/16 14:11:13;;;;;;;18.63;7.60;;;21.30;86.60;;;;;;10492774;28;20571;-34
2021/07/16 14:16:36;;;;;;;14.90;7.17;;;21.30;86.60;;;;;;10449460;28;20266;-35
2021/07/16 14:21:59;;;;;;;16.77;7.23;;;21.30;86.70;;;;;;10452573;28;20193;-31
2021/07/16 14:27:22;;;;;;;24.33;7.90;;;21.30;86.70;;;;;;10442962;28;20700;-32
2021/07/16 14:32:44;;;;;;;24.20;8.93;;;21.30;86.80;;;;;;10429819;28;20221;-34
2021/07/16 14:38:08;;;;;;;21.73;7.97;;;21.30;86.80;;;;;;10423665;28;20200;-33
2021/07/16 14:43:30;;;;;;;19.83;7.93;;;21.30;86.80;;;;;;10424638;28;20722;-33
2021/07/16 14:48:53;;;;;;;19.27;7.70;;;21.30;87.40;;;;;;10421981;28;20213;-32
2021/07/16 14:54:16;;;;;;;13.13;6.57;;;21.30;87.00;;;;;;10446656;28;20296;-33
2021/07/16 14:59:38;;;;;;;17.93;7.70;;;21.30;86.80;;;;;;10423576;28;20332;-32
2021/07/16 15:05:00;;;;;;;13.67;7.33;;;21.30;86.60;;;;;;10408921;28;20237;-33
2021/07/16 15:10:24;;;;;;;12.73;7.10;;;21.30;86.80;;;;;;10409548;28;20209;-35
2021/07/16 15:15:51;;;;;;;16.50;7.20;;;21.30;86.80;;;;;;10411979;28;20348;-35
2021/07/16 15:21:13;;;;;;;14.27;6.97;;;21.30;86.90;;;;;;10452769;28;20207;-35
2021/07/16 15:26:36;;;;;;;17.97;7.47;;;21.30;86.90;;;;;;10458985;28;20716;-32
2021/07/16 15:31:58;;;;;;;14.83;7.00;;;21.30;86.90;;;;;;10458314;28;20663;-32
2021/07/16 15:37:20;;;;;;;16.57;7.17;;;21.30;86.90;;;;;;10455664;28;20220;-31
2021/07/16 15:42:45;;;;;;;20.80;7.80;;;21.30;87.00;;;;;;10458494;28;20209;-33
2021/07/16 15:48:07;;;;;;;20.10;7.73;;;21.30;87.00;;;;;;10446993;28;20197;-32
2021/07/16 15:53:29;;;;;;;20.33;7.30;;;21.30;87.00;;;;;;10448711;28;20252;-35
2021/07/16 15:58:53;;;;;;;22.40;7.60;;;21.30;87.10;;;;;;10437935;28;20198;-34
2021/07/16 16:04:15;;;;;;;18.67;8.13;;;21.30;87.10;;;;;;10415475;28;20279;-33
2021/07/16 16:09:37;;;;;;;19.37;7.77;;;21.30;86.90;;;;;;10438842;28;20198;-31
2021/07/16 16:15:01;;;;;;;19.40;7.77;;;21.30;86.90;;;;;;10435841;28;20244;-32
2021/07/16 16:20:23;;;;;;;15.83;7.77;;;21.30;86.90;;;;;;10451894;28;20576;-33
2021/07/16 16:25:45;;;;;;;16.90;7.63;;;21.30;87.00;;;;;;10444522;28;20228;-32
2021/07/16 16:31:08;;;;;;;19.30;8.23;;;21.40;87.00;;;;;;10454615;28;20700;-35
2021/07/16 16:36:30;;;;;;;18.80;7.73;;;21.30;86.90;;;;;;10441347;28;20225;-32
2021/07/16 16:41:52;;;;;;;21.27;7.87;;;21.30;86.90;;;;;;10412252;28;20197;-31
2021/07/16 16:47:16;;;;;;;16.77;7.27;;;21.30;87.40;;;;;;10441652;28;20513;-33
2021/07/16 16:52:38;;;;;;;15.57;7.23;;;21.30;86.90;;;;;;10412021;28;20217;-32
2021/07/16 16:58:00;;;;;;;13.83;6.77;;;21.30;86.90;;;;;;10409550;28;20205;-34
2021/07/16 17:03:24;;;;;;;16.07;6.73;;;21.30;86.80;;;;;;10409367;28;20600;-36
2021/07/16 17:08:46;;;;;;;14.03;7.03;;;21.30;86.90;;;;;;10410248;28;20201;-32
2021/07/16 17:14:08;;;;;;;13.53;6.90;;;21.30;86.90;;;;;;10413004;28;20218;-32
2021/07/16 17:19:32;;;;;;;17.73;6.70;;;21.30;86.90;;;;;;10411417;28;20731;-34
2021/07/16 17:24:54;;;;;;;13.37;6.63;;;21.30;87.00;;;;;;10409796;28;20217;-33
2021/07/16 17:30:18;;;;;;;15.73;7.00;;;21.30;87.00;;;;;;10408643;28;20197;-32
2021/07/16 17:35:41;;;;;;;14.13;6.63;;;21.20;87.00;;;;;;10422555;28;20608;-33
2021/07/16 17:41:03;;;;;;;15.80;6.40;;;21.20;87.00;;;;;;10419880;28;20198;-31
2021/07/16 17:46:26;;;;;;;12.93;6.33;;;21.20;87.00;;;;;;10413664;28;20696;-32
2021/07/16 17:51:49;;;;;;;12.00;6.07;;;21.20;87.00;;;;;;10413057;28;20610;-32
2021/07/16 17:57:11;;;;;;;12.43;5.90;;;21.20;87.00;;;;;;10413120;28;20206;-30
2021/07/16 18:02:34;;;;;;;13.77;6.10;;;21.20;87.10;;;;;;10429931;28;20218;-31
2021/07/16 18:07:58;;;;;;;12.57;5.83;;;21.20;87.00;;;;;;10448647;28;20198;-31
2021/07/16 18:13:20;;;;;;;15.30;6.23;;;21.20;87.00;;;;;;10412505;28;20574;-30
2021/07/16 18:18:42;;;;;;;11.83;5.90;;;21.20;87.00;;;;;;10412307;28;20201;-31
2021/07/16 18:24:06;;;;;;;10.50;5.07;;;21.20;87.00;;;;;;10422415;28;20593;-32
2021/07/16 18:29:28;;;;;;;12.37;6.07;;;21.20;87.00;;;;;;10411458;28;20700;-32
2021/07/16 18:34:50;;;;;;;10.70;5.80;;;21.20;87.10;;;;;;10432911;28;20762;-34
2021/07/16 18:40:15;;;;;;;12.30;5.70;;;21.20;87.00;;;;;;10442655;28;20217;-33
2021/07/16 18:45:37;;;;;;;12.03;5.80;;;21.20;87.10;;;;;;10451251;28;20236;-35
2021/07/16 18:50:59;;;;;;;10.60;5.13;;;21.20;86.90;;;;;;10453743;28;20197;-34
2021/07/16 18:56:25;;;;;;;11.30;5.60;;;21.20;87.00;;;;;;10460463;28;20224;-35
2021/07/16 19:01:47;;;;;;;15.07;6.00;;;21.20;87.00;;;;;;10460459;28;20576;-32
2021/07/16 19:07:09;;;;;;;11.13;4.93;;;21.20;87.00;;;;;;10458298;28;20220;-34
2021/07/16 19:12:33;;;;;;;13.77;5.40;;;21.20;86.70;;;;;;10418453;28;20209;-32
2021/07/16 19:17:58;;;;;;;14.17;5.13;;;21.20;86.70;;;;;;10419710;28;20233;-31
2021/07/16 19:23:20;;;;;;;12.60;5.63;;;21.20;86.60;;;;;;10440319;28;20224;-32
2021/07/16 19:28:44;;;;;;;16.67;6.03;;;21.20;86.60;;;;;;10459613;28;20200;-32
2021/07/16 19:34:06;;;;;;;13.63;5.53;;;21.20;86.60;;;;;;10459195;28;20221;-34
2021/07/16 19:39:28;;;;;;;17.33;5.73;;;21.20;86.60;;;;;;10450303;28;20577;-33
2021/07/16 19:44:51;;;;;;;15.30;6.00;;;21.20;86.40;;;;;;10450453;28;20722;-32
2021/07/16 19:50:14;;;;;;;12.30;5.77;;;21.20;86.50;;;;;;10458586;28;20276;-32
2021/07/16 19:55:36;;;;;;;11.43;5.17;;;21.20;87.00;;;;;;10454288;28;20213;-31
2021/07/16 20:01:00;;;;;;;19.03;5.97;;;21.20;86.30;;;;;;10434109;28;20201;-33
2021/07/16 20:06:22;;;;;;;19.33;6.50;;;21.20;86.10;;;;;;10466777;23;20233;-24
2021/07/16 20:11:45;;;;;;;14.73;6.30;;;21.20;85.40;;;;;;10481652;28;20238;-24
2021/07/16 20:17:08;;;;;;;15.43;5.90;;;21.20;85.90;;;;;;10480234;28;20220;-23
2021/07/16 20:22:32;;;;;;;16.33;6.73;;;21.20;86.20;;;;;;10447984;28;20197;-24
2021/07/16 20:27:54;;;;;;;17.10;6.33;;;21.20;85.50;;;;;;10432608;28;20684;-24
2021/07/16 20:33:19;;;;;;;19.40;6.33;;;21.20;85.90;;;;;;10425038;28;20213;-26
2021/07/16 20:38:41;;;;;;;12.67;6.13;;;21.20;85.90;;;;;;10418766;28;20217;-23
2021/07/16 20:44:03;;;;;;;19.63;7.73;;;21.20;85.10;;;;;;10435577;28;20213;-23
2021/07/16 20:49:26;;;;;;;21.07;7.03;;;21.20;84.40;;;;;;10435645;28;20192;-24
2021/07/16 20:54:49;;;;;;;31.20;8.33;;;21.10;84.30;;;;;;10435911;28;20218;-24
2021/07/16 21:00:14;;;;;;;26.70;7.77;;;21.10;83.80;;;;;;10436390;28;20193;-23
2021/07/16 21:05:37;;;;;;;24.33;7.83;;;21.10;84.20;;;;;;10432719;28;20222;-23
2021/07/16 21:11:00;;;;;;;29.73;8.83;;;21.00;84.00;;;;;;10435011;28;20189;-24
2021/07/16 21:16:22;;;;;;;28.10;7.93;;;21.00;83.90;;;;;;10432665;28;20588;-23
2021/07/16 21:21:45;;;;;;;23.23;7.27;;;21.00;84.10;;;;;;10433959;28;20612;-23
2021/07/16 21:27:08;;;;;;;23.67;7.37;;;21.00;83.70;;;;;;10447890;28;20723;-23
2021/07/16 21:32:30;;;;;;;23.17;7.50;;;21.00;83.90;;;;;;10454604;28;20198;-24
2021/07/16 21:37:54;;;;;;;22.80;7.73;;;21.00;84.20;;;;;;10452652;28;20189;-24
2021/07/16 21:43:16;;;;;;;25.67;8.30;;;21.00;84.00;;;;;;10454302;28;20558;-24
2021/07/16 21:48:38;;;;;;;22.23;6.93;;;20.80;84.00;;;;;;10454491;28;20687;-24
2021/07/16 21:54:01;;;;;;;24.83;7.60;;;20.80;84.30;;;;;;10453839;28;20735;-24
2021/07/16 21:59:23;;;;;;;23.27;7.43;;;20.80;84.30;;;;;;10449379;28;20657;-23
2021/07/16 22:04:45;;;;;;;22.33;8.20;;;20.80;84.00;;;;;;10472534;28;20224;-24
2021/07/16 22:10:11;;;;;;;23.60;8.50;;;20.80;84.40;;;;;;10492537;28;20196;-23
2021/07/16 22:15:33;;;;;;;19.60;7.13;;;20.90;84.10;;;;;;10493199;28;20227;-24
2021/07/16 22:20:55;;;;;;;27.10;8.30;;;20.90;83.70;;;;;;10465560;28;20197;-24
2021/07/16 22:26:18;;;;;;;24.03;8.27;;;20.90;84.20;;;;;;10450983;28;20212;-23
2021/07/16 22:31:40;;;;;;;20.10;7.47;;;20.80;83.90;;;;;;10448896;28;20208;-23
2021/07/16 22:37:03;;;;;;;28.40;8.83;;;20.70;84.20;;;;;;10452290;28;20224;-24
2021/07/16 22:42:26;;;;;;;24.17;8.07;;;20.70;84.60;;;;;;10414465;28;20681;-23
2021/07/16 22:47:49;;;;;;;31.17;9.67;;;20.70;84.40;;;;;;10410467;28;20565;-23
2021/07/16 22:53:12;;;;;;;23.93;8.00;;;20.70;84.20;;;;;;10409112;28;20715;-24
2021/07/16 22:58:35;;;;;;;21.10;8.50;;;20.70;84.40;;;;;;10438078;28;20200;-22
2021/07/16 23:03:57;;;;;;;25.00;8.97;;;20.80;84.20;;;;;;10432389;28;20752;-26
2021/07/16 23:09:21;;;;;;;25.10;8.20;;;20.80;84.10;;;;;;10409997;28;20228;-23
2021/07/16 23:14:44;;;;;;;22.07;8.87;;;20.80;84.10;;;;;;10409816;28;20704;-23
2021/07/16 23:20:09;;;;;;;21.03;8.67;;;20.80;83.90;;;;;;10413935;28;20615;-23
2021/07/16 23:25:31;;;;;;;20.33;8.33;;;20.80;83.90;;;;;;10453977;28;20680;-24
2021/07/16 23:30:55;;;;;;;21.97;9.27;;;20.80;84.20;;;;;;10450293;28;20204;-26
2021/07/16 23:36:17;;;;;;;24.43;9.13;;;20.80;84.20;;;;;;10452242;28;20217;-24
2021/07/16 23:41:39;;;;;;;23.53;9.30;;;20.80;84.20;;;;;;10458787;28;20193;-23
2021/07/16 23:47:03;;;;;;;20.10;8.60;;;20.80;83.80;;;;;;10457116;28;20205;-24
2021/07/16 23:52:25;;;;;;;19.67;9.07;;;20.80;84.30;;;;;;10457832;28;20678;-23
2021/07/16 23:57:47;;;;;;;21.90;10.13;;;20.80;84.10;;;;;;10462665;28;20625;-23
